Time;durP1;ratioP1;P1;durP2;ratioP2;P2;SDS_P1;SDS_P2;PMS_P1;PMS_P2;Temp;Humidity;BMP_temperature;BMP_pressure;BME280_temperature;BME280_humidity;BME280_pressure;Samples;Min_cycle;Max_cycle;Signal;HPM_P1;HPM_P2
2022/04/20 00:01:46;;;;;;;1.90;1.70;;;;;;;4.78;65.88;102392.72;5060914;28;20051;-68
2022/04/20 00:04:12;;;;;;;1.97;1.70;;;;;;;4.75;66.32;102386.75;5060458;28;20153;-68
2022/04/20 00:06:37;;;;;;;2.50;1.83;;;;;;;4.76;66.34;102391.09;5055729;28;20043;-69
2022/04/20 00:09:03;;;;;;;3.47;2.00;;;;;;;4.71;66.08;102379.94;5052176;28;20041;-67
2022/04/20 00:11:29;;;;;;;2.10;1.80;;;;;;;4.74;65.98;102392.97;5051861;28;20041;-69
2022/04/20 00:13:54;;;;;;;2.80;1.90;;;;;;;4.77;65.68;102391.00;5052319;28;20774;-69
2022/04/20 00:16:20;;;;;;;2.27;2.07;;;;;;;4.82;65.56;102393.38;5051807;28;20112;-68
2022/04/20 00:18:46;;;;;;;4.70;2.00;;;;;;;4.77;65.95;102385.72;5051487;28;20037;-67
2022/04/20 00:21:12;;;;;;;4.53;2.27;;;;;;;4.85;66.08;102403.78;5051478;28;20049;-67
2022/04/20 00:23:40;;;;;;;2.27;1.93;;;;;;;4.86;65.75;102403.69;5051443;28;20544;-70
2022/04/20 00:26:05;;;;;;;2.20;2.00;;;;;;;4.82;66.15;102393.38;5051599;28;20287;-67
2022/04/20 00:28:31;;;;;;;4.70;1.70;;;;;;;4.85;66.04;102403.78;5053668;28;20515;-69
2022/04/20 00:30:57;;;;;;;2.77;1.83;;;;;;;4.85;66.05;102398.50;5051410;28;20404;-67
2022/04/20 00:33:23;;;;;;;3.07;1.97;;;;;;;4.85;65.39;102401.97;5051421;28;20140;-70
2022/04/20 00:35:50;;;;;;;3.03;2.07;;;;;;;4.78;65.90;102391.84;5051534;28;20037;-69
2022/04/20 00:38:17;;;;;;;4.30;2.03;;;;;;;4.64;65.77;102371.53;5051532;28;20037;-67
2022/04/20 00:40:45;;;;;;;3.27;2.40;;;;;;;4.81;65.73;102402.25;5051771;28;20307;-70
2022/04/20 00:43:12;;;;;;;3.58;1.83;;;;;;;4.78;65.63;102403.25;5052392;28;20271;-67
2022/04/20 00:45:40;;;;;;;2.77;2.20;;;;;;;4.79;65.77;102404.13;5051523;28;20136;-67
2022/04/20 00:48:09;;;;;;;3.00;2.20;;;;;;;4.84;65.89;102408.19;5051553;28;20263;-68
2022/04/20 00:50:35;;;;;;;3.73;2.10;;;;;;;4.82;65.42;102398.66;5050105;28;20330;-69
2022/04/20 00:53:00;;;;;;;4.47;2.40;;;;;;;4.80;65.71;102395.25;5051305;28;20267;-68
2022/04/20 00:55:26;;;;;;;3.43;2.03;;;;;;;4.78;66.37;102407.69;5051422;28;20056;-67
2022/04/20 00:57:51;;;;;;;2.30;2.07;;;;;;;4.77;66.14;102406.00;5066908;28;20033;-68
2022/04/20 01:00:18;;;;;;;3.30;2.33;;;;;;;4.73;66.17;102410.59;5052544;28;20257;-67
2022/04/20 01:02:44;;;;;;;2.70;1.90;;;;;;;4.70;65.98;102408.13;5052275;28;20173;-67
2022/04/20 01:05:10;;;;;;;4.20;2.13;;;;;;;4.71;66.42;102416.91;5054924;28;20255;-67
2022/04/20 01:07:37;;;;;;;4.90;2.27;;;;;;;4.57;66.12;102389.47;5054866;28;20271;-67
2022/04/20 01:10:04;;;;;;;3.10;1.93;;;;;;;4.66;66.37;102403.97;5054656;28;20669;-66
2022/04/20 01:12:30;;;;;;;2.07;1.77;;;;;;;4.72;65.86;102405.41;5054472;28;20802;-67
2022/04/20 01:14:55;;;;;;;3.47;2.13;;;;;;;4.71;65.97;102416.91;5056200;28;20278;-64
2022/04/20 01:17:21;;;;;;;2.40;2.20;;;;;;;4.65;66.16;102408.38;5054750;28;20271;-66
2022/04/20 01:19:48;;;;;;;2.67;2.17;;;;;;;4.55;66.29;102393.97;5054207;28;20045;-67
2022/04/20 01:22:13;;;;;;;3.67;2.37;;;;;;;4.68;66.42;102417.06;5054693;28;20492;-66
2022/04/20 01:24:39;;;;;;;4.30;2.40;;;;;;;4.68;66.13;102407.38;5054567;28;20278;-67
2022/04/20 01:27:07;;;;;;;2.57;2.13;;;;;;;4.73;66.79;102415.03;5054306;28;20033;-64
2022/04/20 01:29:33;;;;;;;3.73;2.27;;;;;;;4.70;65.80;102416.03;5055796;28;20044;-64
2022/04/20 01:31:58;;;;;;;3.10;2.00;;;;;;;4.70;65.75;102412.56;5054337;28;20276;-65
2022/04/20 01:34:24;;;;;;;3.40;2.30;;;;;;;4.61;66.00;102412.09;5054296;28;20279;-65
2022/04/20 01:36:50;;;;;;;2.57;1.93;;;;;;;4.58;65.90;102412.28;5054239;28;20116;-65
2022/04/20 01:39:16;;;;;;;2.70;1.70;;;;;;;4.55;66.24;102415.06;5054230;28;20102;-65
2022/04/20 01:41:42;;;;;;;8.50;1.83;;;;;;;4.47;65.56;102411.16;5054152;28;20048;-65
2022/04/20 01:44:08;;;;;;;3.63;1.77;;;;;;;4.47;66.03;102416.44;5054764;28;20284;-64
2022/04/20 01:46:34;;;;;;;1.90;1.60;;;;;;;4.40;66.12;102413.28;5054401;28;20320;-66
2022/04/20 01:49:01;;;;;;;2.00;1.63;;;;;;;4.39;66.18;102419.50;5053969;28;20485;-63
2022/04/20 01:54:11;;;;;;;2.57;1.60;;;;;;;4.38;65.89;102422.22;5053819;28;20588;-66
2022/04/20 01:56:37;;;;;;;2.00;1.70;;;;;;;4.40;65.88;102423.00;5053786;28;20271;-63
2022/04/20 01:59:02;;;;;;;3.27;1.73;;;;;;;4.34;65.94;102414.47;5054531;28;20290;-65
2022/04/20 02:04:14;;;;;;;2.87;1.73;;;;;;;4.29;65.74;102420.91;5053857;28;20033;-65
2022/04/20 02:06:40;;;;;;;2.15;1.88;;;;;;;4.35;65.99;102432.00;5052199;28;20280;-65
2022/04/20 02:09:06;;;;;;;2.23;2.03;;;;;;;4.32;65.87;102424.22;5053453;28;20500;-64
2022/04/20 02:11:31;;;;;;;2.60;1.80;;;;;;;4.30;66.06;102438.44;5053150;28;20511;-65
2022/04/20 02:13:58;;;;;;;1.87;1.77;;;;;;;4.25;66.46;102429.91;5053234;28;20091;-67
2022/04/20 02:16:24;;;;;;;2.20;2.00;;;;;;;4.25;66.16;102429.91;5053799;28;20051;-66
2022/04/20 02:18:50;;;;;;;2.07;1.80;;;;;;;4.19;66.82;102431.09;5053646;28;20321;-64
2022/04/20 02:21:16;;;;;;;4.27;1.97;;;;;;;4.15;66.93;102432.19;5053844;28;20283;-65
2022/04/20 02:23:42;;;;;;;2.33;1.67;;;;;;;4.19;66.67;102438.16;5054973;28;20045;-65
2022/04/20 02:26:07;;;;;;;2.70;1.80;;;;;;;4.19;66.77;102435.53;5054062;28;20041;-65
2022/04/20 02:28:33;;;;;;;2.97;1.70;;;;;;;4.12;67.23;102437.63;5053514;28;20087;-65
2022/04/20 02:30:59;;;;;;;3.63;1.70;;;;;;;4.14;67.51;102433.13;5053734;28;20040;-64
2022/04/20 02:33:25;;;;;;;1.80;1.70;;;;;;;4.14;67.17;102437.56;5053203;28;20281;-65
2022/04/20 02:35:51;;;;;;;3.63;1.90;;;;;;;4.04;67.78;102430.09;5052897;28;20045;-65
2022/04/20 02:38:17;;;;;;;2.27;2.07;;;;;;;4.02;67.56;102436.38;5053192;28;20294;-63
2022/04/20 02:40:44;;;;;;;4.93;2.20;;;;;;;4.08;67.60;102443.16;5052981;28;20295;-63
2022/04/20 02:43:10;;;;;;;2.93;1.70;;;;;;;4.06;67.85;102451.13;5053122;28;20036;-63
2022/04/20 02:45:36;;;;;;;3.67;1.67;;;;;;;4.10;67.71;102446.56;5053340;28;20264;-65
2022/04/20 02:48:02;;;;;;;2.40;1.80;;;;;;;4.13;67.63;102449.03;5053018;28;20119;-66
2022/04/20 02:50:28;;;;;;;3.00;1.80;;;;;;;4.11;67.45;102456.16;5053518;28;20348;-66
2022/04/20 02:52:55;;;;;;;2.57;1.90;;;;;;;4.09;67.53;102452.75;5053671;28;20298;-65
2022/04/20 02:55:21;;;;;;;5.00;2.33;;;;;;;4.04;67.66;102453.81;5053167;28;20278;-65
2022/04/20 02:57:47;;;;;;;2.77;2.00;;;;;;;4.03;67.99;102449.47;5052838;28;20612;-64
2022/04/20 03:00:14;;;;;;;4.33;1.90;;;;;;;3.91;67.82;102426.41;5052859;28;20025;-64
2022/04/20 03:02:40;;;;;;;2.73;2.10;;;;;;;4.01;68.15;102453.97;5052798;28;20278;-64
2022/04/20 03:05:06;;;;;;;3.03;1.80;;;;;;;4.01;68.05;102446.06;5052443;28;20354;-65
2022/04/20 03:07:31;;;;;;;3.37;2.07;;;;;;;4.03;68.03;102456.53;5057504;28;20033;-64
2022/04/20 03:09:57;;;;;;;2.53;2.10;;;;;;;3.98;68.31;102448.88;5063690;28;20278;-67
2022/04/20 03:12:22;;;;;;;2.30;1.67;;;;;;;3.97;68.49;102457.72;5052766;28;20040;-65
2022/04/20 03:14:48;;;;;;;4.07;2.27;;;;;;;3.91;68.76;102452.75;5052994;28;20075;-65
2022/04/20 03:17:13;;;;;;;4.13;1.83;;;;;;;3.91;68.57;102450.13;5053062;28;20041;-64
2022/04/20 03:19:39;;;;;;;3.50;2.40;;;;;;;3.97;68.71;102452.44;5052006;28;20033;-66
2022/04/20 03:22:06;;;;;;;3.13;2.33;;;;;;;3.98;68.27;102453.28;5052330;28;20323;-63
2022/04/20 03:24:31;;;;;;;3.93;1.93;;;;;;;4.06;67.95;102456.41;5052267;28;20045;-65
2022/04/20 03:26:56;;;;;;;3.60;2.00;;;;;;;4.01;67.99;102464.53;5051976;28;20336;-63
2022/04/20 03:29:22;;;;;;;2.87;2.00;;;;;;;4.01;68.51;102453.97;5052198;28;20117;-64
2022/04/20 03:31:48;;;;;;;2.57;2.20;;;;;;;4.00;68.37;102457.56;5052371;28;20040;-65
2022/04/20 03:34:14;;;;;;;4.50;2.40;;;;;;;4.04;67.98;102453.81;5052078;28;20044;-64
2022/04/20 03:36:40;;;;;;;4.00;2.57;;;;;;;4.48;67.26;102458.56;5052177;28;20374;-65
2022/04/20 03:39:06;;;;;;;3.70;2.70;;;;;;;5.23;64.84;102457.09;5052208;28;20398;-65
2022/04/20 03:41:31;;;;;;;3.77;2.57;;;;;;;6.03;61.62;102461.25;5051971;28;20052;-65
2022/04/20 03:43:57;;;;;;;5.97;2.87;;;;;;;6.44;60.63;102464.91;5051890;28;20443;-63
2022/04/20 03:46:24;;;;;;;5.87;2.93;;;;;;;6.64;59.27;102460.16;5067708;28;20044;-64
2022/04/20 03:48:50;;;;;;;4.30;2.43;;;;;;;6.74;58.39;102463.94;5051606;28;20125;-64
2022/04/20 03:51:16;;;;;;;5.87;4.17;;;;;;;6.79;58.61;102469.78;5051380;28;20667;-64
2022/04/20 03:53:41;;;;;;;3.53;2.60;;;;;;;6.71;58.18;102469.44;5052101;28;20259;-66
2022/04/20 03:56:07;;;;;;;3.67;2.20;;;;;;;6.59;58.68;102473.69;5051835;28;20041;-66
2022/04/20 03:58:32;;;;;;;3.40;2.70;;;;;;;6.02;60.29;102472.78;5051915;28;20431;-64
2022/04/20 04:00:58;;;;;;;4.87;2.50;;;;;;;5.96;60.58;102476.63;5052388;28;20035;-65
2022/04/20 04:03:23;;;;;;;3.50;2.40;;;;;;;5.61;61.04;102478.69;5058644;28;20032;-64
2022/04/20 04:05:48;;;;;;;5.93;2.30;;;;;;;5.24;62.49;102480.78;5074081;28;20506;-65
2022/04/20 04:08:14;;;;;;;4.23;2.30;;;;;;;5.05;63.02;102482.72;5070750;28;20032;-64
2022/04/20 04:10:40;;;;;;;5.10;2.70;;;;;;;4.95;63.98;102490.31;5071716;28;20038;-65
2022/04/20 04:13:06;;;;;;;3.43;2.40;;;;;;;4.99;63.59;102485.72;5071752;28;20094;-66
2022/04/20 04:15:33;;;;;;;6.00;2.50;;;;;;;4.97;63.55;102487.59;5070287;28;20043;-66
2022/04/20 04:17:59;;;;;;;6.60;2.40;;;;;;;4.98;63.80;102489.28;5071610;28;20032;-63
2022/04/20 04:20:28;;;;;;;5.43;2.00;;;;;;;4.92;63.50;102479.06;5071487;28;20275;-63
2022/04/20 04:22:54;;;;;;;;;;;;;;;4.98;64.03;102489.28;5072088;28;20040;-70
2022/04/20 04:25:20;;;;;;;6.80;2.53;;;;;;;4.89;63.23;102481.84;5071392;28;20023;-69
2022/04/20 04:27:47;;;;;;;7.77;2.53;;;;;;;4.92;63.14;102484.34;5053536;28;20060;-65
2022/04/20 04:30:14;;;;;;;6.93;2.67;;;;;;;4.98;63.62;102489.28;5071272;28;20267;-69
2022/04/20 04:32:39;;;;;;;4.17;2.47;;;;;;;4.87;63.18;102475.81;5076262;28;20297;-71
2022/04/20 04:35:06;;;;;;;3.67;2.30;;;;;;;4.97;63.42;102492.88;5071554;28;20262;-69
2022/04/20 04:37:34;;;;;;;4.73;2.40;;;;;;;4.91;62.96;102487.91;5072266;28;20064;-71
2022/04/20 04:40:00;;;;;;;6.23;2.63;;;;;;;4.96;62.83;102496.44;5075272;28;20445;-70
2022/04/20 04:42:26;;;;;;;5.87;2.83;;;;;;;4.94;63.06;102499.19;5075462;28;20345;-71
2022/04/20 04:44:52;;;;;;;6.83;2.87;;;;;;;4.96;62.78;102505.22;5075115;28;20729;-66
2022/04/20 04:50:04;;;;;;;4.40;2.93;;;;;;;4.96;62.21;102491.16;5075233;28;20354;-66
2022/04/20 04:52:29;;;;;;;6.10;2.90;;;;;;;5.12;62.43;102514.94;5075668;28;20314;-68
2022/04/20 04:54:55;;;;;;;14.80;3.33;;;;;;;5.13;62.80;102512.19;5074409;28;20641;-65
2022/04/20 04:57:21;;;;;;;7.10;2.70;;;;;;;5.19;62.87;102519.78;5073175;28;20059;-67
2022/04/20 04:59:47;;;;;;;4.43;2.73;;;;;;;5.22;62.29;102518.78;5074409;28;20291;-63
2022/04/20 05:02:12;;;;;;;8.67;4.00;;;;;;;5.25;62.15;102503.63;5075464;28;20036;-65
2022/04/20 05:04:42;;;;;;;4.57;2.90;;;;;;;5.43;61.13;102511.44;5074955;28;20518;-68
2022/04/20 05:07:08;;;;;;;8.73;3.10;;;;;;;5.58;61.00;102505.28;5074584;28;20483;-64
2022/04/20 05:09:33;;;;;;;7.07;3.20;;;;;;;5.71;60.65;102516.84;5074530;28;20341;-68
2022/04/20 05:11:59;;;;;;;8.27;3.20;;;;;;;5.77;60.51;102507.69;5074855;28;20491;-65
2022/04/20 05:14:25;;;;;;;5.13;3.50;;;;;;;5.86;60.28;102521.25;5074540;28;20102;-68
2022/04/20 05:16:51;;;;;;;11.80;4.37;;;;;;;5.92;60.03;102524.50;5073094;28;20770;-66
2022/04/20 05:19:17;;;;;;;7.30;3.73;;;;;;;5.95;59.55;102519.03;5074507;28;20032;-64
2022/04/20 05:21:46;;;;;;;10.13;4.30;;;;;;;5.95;59.83;102495.25;5073980;28;20339;-65
2022/04/20 05:24:12;;;;;;;14.40;5.00;;;;;;;6.17;59.66;102514.19;5074212;28;20040;-65
2022/04/20 05:26:38;;;;;;;7.33;4.17;;;;;;;6.27;58.05;102510.03;5073874;28;20273;-64
2022/04/20 05:29:04;;;;;;;11.43;3.73;;;;;;;6.38;58.23;102504.13;5074134;28;20193;-64
2022/04/20 05:31:29;;;;;;;9.27;3.93;;;;;;;6.35;57.37;102489.25;5074217;28;20868;-66
2022/04/20 05:33:54;;;;;;;9.63;4.00;;;;;;;6.53;57.33;102511.97;5075794;28;20028;-64
2022/04/20 05:36:20;;;;;;;8.77;4.63;;;;;;;6.61;57.22;102511.50;5074698;28;20034;-65
2022/04/20 05:41:40;;;;;;;13.00;5.10;;;;;;;6.91;56.96;102516.69;5071809;28;20265;-69
2022/04/20 05:44:06;;;;;;;7.00;3.43;;;;;;;7.01;55.08;102507.22;5073817;28;20271;-66
2022/04/20 05:46:33;;;;;;;6.40;3.10;;;;;;;7.08;55.34;102503.22;5073831;28;20056;-64
2022/04/20 05:48:59;;;;;;;8.50;3.70;;;;;;;7.14;54.76;102496.69;5076210;28;20125;-64
2022/04/20 05:51:24;;;;;;;9.97;3.90;;;;;;;7.25;55.43;102498.66;5073847;28;20036;-67
2022/04/20 05:53:50;;;;;;;11.00;3.80;;;;;;;7.32;53.88;102506.13;5073404;28;20125;-66
2022/04/20 05:56:16;;;;;;;9.43;3.30;;;;;;;7.44;53.68;102512.41;5073311;28;20104;-67
2022/04/20 05:58:41;;;;;;;12.60;3.33;;;;;;;7.48;54.48;102503.31;5073755;28;20033;-65
2022/04/20 06:01:06;;;;;;;17.70;3.73;;;;;;;7.62;53.97;102513.88;5072111;28;20483;-63
2022/04/20 06:03:32;;;;;;;7.47;3.27;;;;;;;7.63;53.42;102506.78;5072820;28;20028;-63
2022/04/20 06:06:01;;;;;;;8.57;2.83;;;;;;;7.69;53.17;102503.72;5072932;28;20025;-68
2022/04/20 06:08:27;;;;;;;8.67;3.60;;;;;;;7.85;51.49;102530.09;5072980;28;20032;-62
2022/04/20 06:10:52;;;;;;;11.20;3.67;;;;;;;7.71;52.25;102496.50;5072741;28;20495;-67
2022/04/20 06:13:18;;;;;;;10.20;4.07;;;;;;;7.89;52.44;102515.66;5073309;28;20111;-63
2022/04/20 06:15:44;;;;;;;7.50;2.80;;;;;;;7.97;51.75;102513.34;5072770;28;20381;-65
2022/04/20 06:18:10;;;;;;;8.17;3.57;;;;;;;8.04;52.37;102507.50;5073603;28;20028;-63
2022/04/20 06:20:37;;;;;;;8.53;3.10;;;;;;;8.12;51.06;102509.66;5073186;28;20045;-62
2022/04/20 06:23:02;;;;;;;6.73;2.93;;;;;;;8.22;50.99;102517.84;5072834;28;20044;-63
2022/04/20 06:25:28;;;;;;;3.80;2.60;;;;;;;8.29;51.23;102513.81;5073220;28;20051;-63
2022/04/20 06:27:54;;;;;;;9.13;4.10;;;;;;;8.38;50.40;102519.38;5073434;28;20517;-61
2022/04/20 06:30:19;;;;;;;5.70;2.90;;;;;;;8.50;50.71;102527.44;5073214;28;20057;-61
2022/04/20 06:32:44;;;;;;;5.73;2.50;;;;;;;8.56;50.93;102527.00;5073191;28;20071;-65
2022/04/20 06:35:10;;;;;;;8.50;2.90;;;;;;;8.62;50.29;102529.25;5073333;28;20040;-63
2022/04/20 06:37:36;;;;;;;10.07;2.87;;;;;;;8.64;50.25;102527.31;5072981;28;20033;-61
2022/04/20 06:40:02;;;;;;;7.80;3.37;;;;;;;8.69;49.63;102527.88;5073229;28;20131;-62
2022/04/20 06:42:28;;;;;;;9.90;3.40;;;;;;;8.68;49.59;102521.72;5072863;28;20052;-62
2022/04/20 06:44:54;;;;;;;5.53;2.07;;;;;;;8.81;49.26;102534.97;5072941;28;20119;-61
2022/04/20 06:47:19;;;;;;;13.70;3.40;;;;;;;8.95;49.24;102540.16;5072924;28;20533;-62
2022/04/20 06:49:45;;;;;;;7.33;2.43;;;;;;;9.02;49.22;102529.09;5071738;28;20067;-63
2022/04/20 07:00:23;;;;;;;8.93;2.83;;;;;;;9.31;47.59;102533.19;5072810;28;20032;-63
2022/04/20 07:03:01;;;;;;;4.30;2.33;;;;;;;9.41;47.67;102534.19;5072684;28;20043;-66
2022/04/20 07:05:27;;;;;;;8.73;2.53;;;;;;;9.16;47.71;102484.59;5072874;28;20118;-62
2022/04/20 07:07:52;;;;;;;4.87;2.00;;;;;;;9.58;46.58;102533.81;5072378;28;20049;-63
2022/04/20 07:10:18;;;;;;;6.77;2.03;;;;;;;9.65;46.32;102536.03;5072000;28;20487;-62
2022/04/20 07:12:44;;;;;;;6.53;2.10;;;;;;;9.74;46.72;102538.00;5072559;28;20433;-67
2022/04/20 07:15:09;;;;;;;5.90;2.00;;;;;;;9.80;46.27;102537.53;5072186;28;20036;-64
2022/04/20 07:17:35;;;;;;;2.43;1.50;;;;;;;9.84;45.43;102523.91;5072244;28;21011;-64
2022/04/20 07:20:06;;;;;;;5.20;2.17;;;;;;;9.91;45.66;102530.47;5072857;28;20151;-64
2022/04/20 07:22:33;;;;;;;6.60;2.67;;;;;;;9.88;45.37;102509.41;5071960;28;20483;-65
2022/04/20 07:25:00;;;;;;;6.17;2.37;;;;;;;10.14;44.75;102526.06;5074073;28;20044;-66
2022/04/20 07:27:26;;;;;;;10.73;3.27;;;;;;;10.17;44.58;102531.16;5072377;28;20447;-67
2022/04/20 07:29:52;;;;;;;7.63;2.23;;;;;;;10.17;44.55;102515.19;5072315;28;20040;-70
2022/04/20 07:32:17;;;;;;;5.27;2.17;;;;;;;10.31;44.24;102526.59;5072187;28;20407;-68
2022/04/20 07:34:42;;;;;;;3.63;2.20;;;;;;;10.38;44.15;102543.81;5071268;28;20033;-72
2022/04/20 07:37:08;;;;;;;3.20;2.07;;;;;;;10.44;44.03;102538.88;5072131;28;20028;-71
2022/04/20 07:39:34;;;;;;;5.40;1.93;;;;;;;10.37;43.35;102523.47;5072462;28;20040;-69
2022/04/20 07:42:24;;;;;;;6.27;3.13;;;;;;;10.47;43.40;102527.13;5072272;28;20148;-65
2022/04/20 07:44:50;;;;;;;7.23;2.83;;;;;;;10.62;43.51;102531.25;5072083;28;20134;-66
2022/04/20 07:47:16;;;;;;;5.53;1.90;;;;;;;10.65;42.70;102525.69;5071923;28;20460;-66
2022/04/20 07:52:28;;;;;;;5.63;1.80;;;;;;;10.93;42.10;102536.84;5071459;28;20040;-64
2022/04/20 07:54:54;;;;;;;2.20;1.70;;;;;;;10.86;41.92;102528.47;5071785;28;20029;-64
2022/04/20 07:57:19;;;;;;;8.00;2.20;;;;;;;10.99;42.25;102533.72;5071935;28;20036;-63
2022/04/20 07:59:45;;;;;;;2.33;1.90;;;;;;;11.02;41.30;102542.31;5071623;28;20503;-61
2022/04/20 08:02:10;;;;;;;4.97;1.93;;;;;;;11.07;41.94;102526.78;5070543;28;20123;-65
2022/04/20 08:04:36;;;;;;;5.10;2.13;;;;;;;11.12;41.54;102523.75;5071794;28;20369;-63
2022/04/20 08:07:02;;;;;;;3.57;2.17;;;;;;;11.12;41.42;102529.06;5071630;28;20037;-64
2022/04/20 08:09:29;;;;;;;5.87;1.80;;;;;;;11.16;41.82;102518.03;5071399;28;20060;-62
2022/04/20 08:11:54;;;;;;;4.27;1.80;;;;;;;11.29;41.00;102520.56;5071800;28;20044;-65
2022/04/20 08:14:20;;;;;;;7.67;2.40;;;;;;;11.38;40.66;102527.81;5074644;28;20078;-75
2022/04/20 08:16:47;;;;;;;4.03;2.00;;;;;;;11.42;40.69;102531.06;5074120;28;20036;-63
2022/04/20 08:19:12;;;;;;;4.77;1.93;;;;;;;11.41;41.02;102524.91;5075563;28;20035;-65
2022/04/20 08:21:38;;;;;;;4.97;2.10;;;;;;;11.41;40.47;102524.06;5075963;28;20057;-63
2022/04/20 08:24:04;;;;;;;9.00;2.40;;;;;;;11.46;40.52;102522.69;5076177;28;20041;-64
2022/04/20 08:26:29;;;;;;;5.90;2.20;;;;;;;11.55;40.86;102517.56;5076090;28;20036;-62
2022/04/20 08:28:55;;;;;;;7.90;2.07;;;;;;;11.61;40.04;102514.41;5075221;28;20158;-62
2022/04/20 08:31:21;;;;;;;4.20;2.03;;;;;;;11.72;40.69;102517.88;5075517;28;20177;-66
2022/04/20 08:33:46;;;;;;;8.30;1.97;;;;;;;11.79;39.49;102511.09;5075866;28;20442;-61
2022/04/20 08:36:12;;;;;;;7.70;2.30;;;;;;;11.88;39.32;102522.84;5075347;28;20041;-64
2022/04/20 08:38:41;;;;;;;4.20;1.93;;;;;;;11.89;39.71;102513.84;5074835;28;20135;-68
2022/04/20 08:41:11;;;;;;;5.82;1.95;;;;;;;11.83;40.03;102509.00;5074781;28;20036;-66
2022/04/20 08:43:40;;;;;;;8.20;2.00;;;;;;;11.78;39.95;102496.03;5074893;28;20623;-63
2022/04/20 08:46:07;;;;;;;;;;;;;;;12.00;39.50;102511.13;5075263;28;20036;-67
2022/04/20 08:48:33;;;;;;;4.67;1.73;;;;;;;11.98;39.24;102515.75;5073607;28;20284;-64
2022/04/20 08:51:05;;;;;;;4.03;1.67;;;;;;;11.99;39.32;102512.09;5072467;28;20029;-63
2022/04/20 08:53:30;;;;;;;4.13;1.50;;;;;;;11.98;39.03;102504.22;5075015;28;20032;-65
2022/04/20 08:58:53;;;;;;;2.90;1.47;;;;;;;12.06;38.73;102520.44;5018844;28;20057;-71
2022/04/20 09:01:19;;;;;;;2.33;1.55;;;;;;;12.03;38.87;102505.50;5074364;28;20033;-64
2022/04/20 09:03:48;;;;;;;2.17;1.47;;;;;;;12.03;39.29;102507.34;5074801;28;20040;-64
2022/04/20 09:06:14;;;;;;;;;;;;;;;12.10;39.03;102512.03;5074974;28;20488;-72
2022/04/20 09:08:40;;;;;;;5.37;1.50;;;;;;;12.16;38.78;102523.19;5074845;28;19962;-68
2022/04/20 09:11:07;;;;;;;8.07;2.20;;;;;;;11.99;38.81;102506.75;5074318;28;20032;-65
2022/04/20 09:13:39;;;;;;;6.00;2.37;;;;;;;12.05;39.03;102522.25;5074470;28;20037;-61
2022/04/20 09:16:09;;;;;;;2.77;1.37;;;;;;;12.08;38.70;102513.97;5071531;28;20464;-65
2022/04/20 09:18:36;;;;;;;8.63;2.03;;;;;;;12.17;38.99;102522.22;5074028;28;20032;-66
2022/04/20 09:21:17;;;;;;;3.60;1.53;;;;;;;12.21;38.72;102516.47;5072939;28;20056;-66
2022/04/20 09:23:44;;;;;;;5.10;2.40;;;;;;;12.31;38.34;102525.38;5071081;28;20048;-67
2022/04/20 09:26:17;;;;;;;4.53;1.70;;;;;;;12.31;38.52;102503.16;5073730;28;20039;-67
2022/04/20 09:29:06;;;;;;;9.60;2.47;;;;;;;12.39;38.00;102524.72;5074040;28;20039;-65
2022/04/20 09:31:49;;;;;;;6.73;1.77;;;;;;;12.32;37.94;102513.72;5069421;28;20407;-69
2022/04/20 09:35:03;;;;;;;4.27;2.00;;;;;;;12.30;38.21;102520.19;5073051;28;20407;-66
2022/04/20 09:37:22;;;;;;;8.17;1.83;;;;;;;12.35;38.26;102523.28;5073032;28;20047;-65
2022/04/20 09:39:51;;;;;;;3.27;1.53;;;;;;;12.40;37.31;102518.41;5073862;28;20033;-63
2022/04/20 09:42:18;;;;;;;13.80;1.83;;;;;;;12.39;36.69;102522.06;5073869;28;20040;-70
2022/04/20 09:44:57;;;;;;;31.70;3.43;;;;;;;12.37;37.51;102519.50;5073701;28;20090;-65
2022/04/20 09:50:26;;;;;;;6.90;1.60;;;;;;;12.28;38.25;102519.47;5072578;28;19957;-64
2022/04/20 09:52:55;;;;;;;1.83;1.23;;;;;;;12.36;38.44;102517.81;5071740;28;20036;-63
2022/04/20 09:55:30;;;;;;;1.90;1.25;;;;;;;12.41;38.14;102526.28;5073694;28;20035;-63
2022/04/20 09:58:10;;;;;;;3.33;1.80;;;;;;;12.44;38.30;102513.66;5071596;28;20045;-69
2022/04/20 10:00:41;;;;;;;9.90;1.93;;;;;;;12.46;38.03;102512.56;5071936;28;20167;-70
2022/04/20 10:03:07;;;;;;;4.10;2.43;;;;;;;12.47;37.92;102514.25;5073192;28;20483;-69
2022/04/20 10:05:33;;;;;;;8.63;2.00;;;;;;;12.41;38.09;102498.72;5073395;28;20063;-65
2022/04/20 10:07:59;;;;;;;3.53;1.53;;;;;;;12.50;37.92;102513.97;5073465;28;20470;-62
2022/04/20 10:10:28;;;;;;;5.30;1.77;;;;;;;12.50;37.67;102516.66;5073006;28;20063;-64
2022/04/20 10:12:55;;;;;;;6.10;1.80;;;;;;;12.56;37.56;102505.41;5073025;28;20510;-64
2022/04/20 10:18:12;;;;;;;7.30;1.83;;;;;;;12.69;37.41;102519.41;5066156;28;20025;-68
2022/04/20 10:20:43;;;;;;;3.30;1.50;;;;;;;12.74;37.46;102527.03;5073366;28;20515;-65
2022/04/20 10:23:10;;;;;;;4.13;2.13;;;;;;;12.66;37.54;102525.00;5074428;28;20101;-70
2022/04/20 10:25:39;;;;;;;3.93;1.30;;;;;;;12.51;38.05;102499.63;5071865;28;20047;-71
2022/04/20 10:28:17;;;;;;;5.10;1.52;;;;;;;12.63;37.44;102522.59;5072983;28;20032;-70
2022/04/20 10:31:07;;;;;;;8.55;1.75;;;;;;;12.68;37.88;102520.38;5072829;28;20047;-70
2022/04/20 10:33:34;;;;;;;6.67;1.90;;;;;;;12.77;38.10;102525.94;5070752;28;20140;-70
2022/04/20 10:36:04;;;;;;;4.20;1.90;;;;;;;12.79;37.53;102513.28;5072446;28;20044;-65
2022/04/20 10:38:31;;;;;;;8.50;1.87;;;;;;;12.77;37.32;102501.88;5070658;28;20039;-66
2022/04/20 10:41:06;;;;;;;12.00;1.77;;;;;;;12.93;37.61;102504.88;5071958;28;20047;-64
2022/04/20 10:43:34;;;;;;;7.83;1.73;;;;;;;13.04;37.47;102512.81;5072356;28;20040;-68
2022/04/20 10:46:17;;;;;;;3.07;1.73;;;;;;;13.13;37.19;102506.63;5072223;28;20040;-67
2022/04/20 10:48:52;;;;;;;5.50;2.03;;;;;;;13.12;36.66;102517.47;5071227;28;20040;-65
2022/04/20 10:51:46;;;;;;;6.80;2.00;;;;;;;13.04;36.54;102504.78;5070643;28;20101;-62
2022/04/20 10:54:17;;;;;;;12.17;1.83;;;;;;;12.94;37.13;102504.72;5066940;28;20051;-66
2022/04/20 10:57:01;;;;;;;2.90;1.90;;;;;;;12.89;37.13;102509.63;5072193;28;20487;-63
2022/04/20 10:59:29;;;;;;;10.40;1.87;;;;;;;12.97;37.28;102495.59;5071515;28;20430;-64
2022/04/20 11:02:06;;;;;;;;;;;;;;;12.97;36.65;102500.94;5067189;28;20028;-64
2022/04/20 11:04:40;;;;;;;2.90;1.80;;;;;;;12.96;37.08;102505.44;5070328;28;19916;-69
2022/04/20 11:07:08;;;;;;;6.70;1.70;;;;;;;13.08;37.08;102508.03;5072755;28;20044;-70
2022/04/20 11:09:46;;;;;;;6.35;1.42;;;;;;;13.08;37.24;102498.16;5072163;28;20032;-69
2022/04/20 11:18:38;;;;;;;3.63;1.80;;;;;;;13.16;36.97;102495.66;5070149;28;20479;-70
2022/04/20 11:21:11;;;;;;;4.13;1.83;;;;;;;13.18;36.64;102488.38;5070545;28;20052;-68
2022/04/20 11:23:47;;;;;;;21.80;3.00;;;;;;;13.13;37.57;102487.91;5052602;28;20091;-60
2022/04/20 11:26:19;;;;;;;6.37;1.70;;;;;;;13.10;37.71;102473.97;5072128;28;20086;-64
2022/04/20 11:28:45;;;;;;;7.87;1.87;;;;;;;13.25;37.91;102473.44;5071813;28;20532;-64
2022/04/20 11:31:11;;;;;;;9.10;1.87;;;;;;;13.07;37.80;102437.63;5071630;28;20037;-64
2022/04/20 11:33:38;;;;;;;9.47;2.90;;;;;;;13.36;38.15;102495.72;5071849;28;20078;-66
2022/04/20 11:36:04;;;;;;;17.97;2.40;;;;;;;13.18;38.33;102485.69;5073139;28;20032;-62
2022/04/20 11:38:36;;;;;;;4.13;1.83;;;;;;;13.14;38.48;102476.22;5071839;28;20033;-66
2022/04/20 11:41:02;;;;;;;7.47;2.07;;;;;;;13.13;39.23;102457.63;5069392;28;20384;-64
2022/04/20 11:43:28;;;;;;;10.03;3.10;;;;;;;13.17;39.52;102469.75;5071397;28;20034;-72
2022/04/20 11:45:53;;;;;;;6.50;2.27;;;;;;;13.29;39.33;102465.97;5070067;28;20028;-68
2022/04/20 11:48:20;;;;;;;4.47;2.30;;;;;;;13.28;39.21;102448.22;5071578;28;20450;-64
2022/04/20 11:51:18;;;;;;;11.90;3.23;;;;;;;13.37;39.69;102465.31;5071883;28;20115;-64
2022/04/20 11:53:45;;;;;;;;;;;;;;;13.33;40.06;102467.41;5055655;28;20040;-65
2022/04/20 11:56:11;;;;;;;6.57;2.13;;;;;;;13.19;40.29;102446.41;5069806;28;20007;-62
2022/04/20 11:58:39;;;;;;;6.93;2.70;;;;;;;13.31;41.10;102454.19;5071090;28;20113;-62
2022/04/20 12:01:07;;;;;;;2.75;1.70;;;;;;;13.31;40.33;102446.16;5071226;28;20119;-65
2022/04/20 12:03:36;;;;;;;3.83;1.90;;;;;;;13.17;40.61;102441.19;5071484;28;20560;-63
2022/04/20 12:06:07;;;;;;;5.13;1.70;;;;;;;13.21;40.78;102433.72;5070641;28;20032;-62
2022/04/20 12:08:34;;;;;;;5.50;2.20;;;;;;;13.28;40.28;102451.75;5069862;28;20407;-63
2022/04/20 12:11:11;;;;;;;3.07;1.40;;;;;;;13.32;40.56;102444.31;5071253;28;20036;-65